McAlister, NM (88427)

3:56 AM MDT on May 05, 2015 (GMT -0600)
Tucumcari Municipal | | Change Station
CLOSE
Current Station
Airport
Location: Tucumcari,
Elevation: 4065 ft
Nearby Weather Stations

Elev 4065 ft 35.18 °N, 103.60 °W | Updated 5 minutes ago

Overcast
Overcast
55 °F
Feels Like 55 °F
N
0
Wind Variable Wind from North

Today
High -- | Low -- °F
--% Chance of Precip.
Yesterday
High -- | Low -- °F
Precip. -- in
6:00 AM 7:42 PM
Full, 98% visible
Pressure 29.91 in
Visibility 10.0 miles
Clouds Mostly Cloudy 1200 ft
Dew Point 54 °F
Humidity 94%
Rainfall 0.00 in
Snow Depth Not available.
UV 0 out of 12
Pollen 7.30 out of 12
Air Quality Not available.
Flu Activity Local Activity
SPECI KTCC 050951Z AUTO 00000KT 10SM BKN012 13/12 A2991 RMK AO2

More Conditions Fewer Conditions

Pressure 29.91 in
Visibility 10.0 miles
Clouds Mostly Cloudy 1200 ft
Dew Point 54 °F
Humidity 94%
Rainfall 0.00 in
Snow Depth Not available.
UV 0 out of 12
Pollen 7.30 out of 12
Air Quality Not available.
Flu Activity Local Activity
SPECI KTCC 050951Z AUTO 00000KT 10SM BKN012 13/12 A2991 RMK AO2

More Conditions Fewer Conditions

Nepal has a long way to go to dig out and rebuild from a devastating earthquake. We have teamed up with several charities and organizations to make contributing to the relief effort as easy as possible.
How you can help: Portlight Strategies | Red Cross
Nowcast | as of 2:09 am MDT on May 5, 2015

Areas of rain with embedded thunderstorms will continue across much of the eastern New Mexico through the early morning hours. Movement will be to the northeast around 25 mph. Some of the rain will be moderate to heavy on the eastern plains. The heavier rain will likely amount to between a quarter and one half of an inch through 4 am MDT...though the strongest storms may still be capable of producing around three quarters of an inch of rain. Expect high flows in normally dry arroyos and small streams and ponding of water in low spots and on highways.

×

10-Day Weather Forecast

Almanac

Astronomy

May. 05, 2015 Rise Set
Actual Time
Civil Twilight
Nautical Twilight
Astronomical Twilight
Moon
Length of Visible Light
Length of Day
Tomorrow will be .
, % of the Moon is Illuminated

Today's Extremes

State Highs State Lows

Community

WunderPhotos

Upload Photos

1,818,825 photos uploaded!

WunderBlogs® & News

Nearby

Air Quality

  Air Quality AQ Index Pollutant
Not available.

Snow Depth

Station Depth Elevation

Earthquake Activity

City Distance Mag. Time & Date
Minimum magnitude displayed is 2.5.

Coastal Water Temperatures

Place Temperature

Stations

Nearby Weather Stations

Station Location Temp. Windchill Dew Point Humidity Wind Precip. Elev Updated Type